createdAt,value
2018-08-22T00:01:19.553Z,101568.00
2018-08-22T00:03:48.352Z,101560.00
2018-08-22T00:06:17.175Z,101564.00
2018-08-22T00:08:46.235Z,101561.00
2018-08-22T00:11:15.155Z,101563.00
2018-08-22T00:13:44.809Z,101569.00
2018-08-22T00:16:13.655Z,101566.00
2018-08-22T00:18:42.475Z,101563.00
2018-08-22T00:21:11.356Z,101561.00
2018-08-22T00:23:40.222Z,101569.00
2018-08-22T00:26:09.103Z,101562.00
2018-08-22T00:28:38.030Z,101565.00
2018-08-22T00:31:06.972Z,101562.00
2018-08-22T00:33:35.827Z,101571.00
2018-08-22T00:36:04.661Z,101563.00
2018-08-22T00:38:33.483Z,101565.00
2018-08-22T00:41:02.360Z,101567.00
2018-08-22T00:43:31.244Z,101566.00
2018-08-22T00:46:00.174Z,101566.00
2018-08-22T00:48:29.028Z,101562.00
2018-08-22T00:50:57.913Z,101567.00
2018-08-22T00:53:26.747Z,101564.00
2018-08-22T00:55:57.172Z,101560.00
2018-08-22T00:58:31.009Z,101564.00
2018-08-22T01:01:04.840Z,101561.00
2018-08-22T01:03:38.551Z,101570.00
2018-08-22T01:06:12.444Z,101560.00
2018-08-22T01:08:43.102Z,101566.00
2018-08-22T01:11:11.766Z,101567.00
2018-08-22T01:13:40.504Z,101563.00
2018-08-22T01:16:09.166Z,101556.00
2018-08-22T01:18:37.835Z,101566.00
2018-08-22T01:21:06.535Z,101562.00
2018-08-22T01:23:35.192Z,101555.00
2018-08-22T01:26:03.882Z,101559.00
2018-08-22T01:28:32.527Z,101552.00
2018-08-22T01:31:01.179Z,101554.00
2018-08-22T01:33:29.847Z,101558.00
2018-08-22T01:35:58.530Z,101556.00
2018-08-22T01:38:27.337Z,101561.00
2018-08-22T01:40:55.990Z,101552.00
2018-08-22T01:43:24.719Z,101553.00
2018-08-22T01:45:53.337Z,101548.00
2018-08-22T01:48:22.296Z,101545.00
2018-08-22T01:50:51.026Z,101540.00
2018-08-22T01:53:19.723Z,101532.00
2018-08-22T01:55:48.534Z,101536.00
2018-08-22T01:58:17.232Z,101538.00
2018-08-22T02:00:45.882Z,101525.00
2018-08-22T02:03:14.755Z,101528.00
2018-08-22T02:05:43.669Z,101538.00
2018-08-22T02:08:12.515Z,101534.00
2018-08-22T02:10:41.367Z,101527.00
2018-08-22T02:13:10.195Z,101530.00
2018-08-22T02:15:39.025Z,101529.00
2018-08-22T02:18:07.867Z,101528.00
2018-08-22T02:20:36.720Z,101526.00
2018-08-22T02:23:05.634Z,101517.00
2018-08-22T02:25:34.475Z,101515.00
2018-08-22T02:28:03.303Z,101515.00
2018-08-22T02:30:32.129Z,101520.00
2018-08-22T02:33:01.236Z,101522.00
2018-08-22T02:35:30.116Z,101518.00
2018-08-22T02:37:58.933Z,101518.00
2018-08-22T02:40:27.817Z,101526.00
2018-08-22T02:42:56.647Z,101522.00
2018-08-22T02:45:25.513Z,101512.00
2018-08-22T02:47:54.344Z,101508.00
2018-08-22T02:50:23.320Z,101517.00
2018-08-22T02:52:52.215Z,101521.00
2018-08-22T02:55:21.072Z,101517.00
2018-08-22T02:57:49.903Z,101517.00
2018-08-22T03:00:18.756Z,101513.00
2018-08-22T03:02:47.630Z,101513.00
2018-08-22T03:05:16.513Z,101516.00
2018-08-22T03:07:45.356Z,101521.00
2018-08-22T03:10:14.192Z,101516.00
2018-08-22T03:12:43.047Z,101514.00
2018-08-22T03:15:11.901Z,101514.00
2018-08-22T03:17:40.771Z,101519.00
2018-08-22T03:20:09.563Z,101520.00
2018-08-22T03:22:38.435Z,101521.00
2018-08-22T03:25:07.279Z,101513.00
2018-08-22T03:27:36.150Z,101513.00
2018-08-22T03:30:05.213Z,101505.00
2018-08-22T03:32:34.077Z,101508.00
2018-08-22T03:35:03.187Z,101517.00
2018-08-22T03:37:32.024Z,101512.00
2018-08-22T03:40:00.832Z,101514.00
2018-08-22T03:42:29.708Z,101518.00
2018-08-22T03:44:58.593Z,101514.00
2018-08-22T03:47:27.436Z,101516.00
2018-08-22T03:49:56.308Z,101505.00
2018-08-22T03:52:25.193Z,101509.00
2018-08-22T03:54:54.029Z,101507.00
2018-08-22T03:57:22.822Z,101507.00
2018-08-22T03:59:51.797Z,101511.00
2018-08-22T04:02:20.673Z,101512.00
2018-08-22T04:04:49.479Z,101505.00
2018-08-22T04:07:18.486Z,101513.00
2018-08-22T04:09:47.377Z,101511.00
2018-08-22T04:12:16.191Z,101511.00
2018-08-22T04:14:44.998Z,101507.00
2018-08-22T04:17:13.833Z,101510.00
2018-08-22T04:19:42.740Z,101510.00
2018-08-22T04:22:11.547Z,101512.00
2018-08-22T04:24:40.477Z,101509.00
2018-08-22T04:27:09.327Z,101508.00
2018-08-22T04:29:38.169Z,101517.00
2018-08-22T04:32:07.160Z,101508.00
2018-08-22T04:34:36.030Z,101509.00
2018-08-22T04:37:05.057Z,101512.00
2018-08-22T04:39:33.886Z,101510.00
2018-08-22T04:42:02.713Z,101508.00
2018-08-22T04:44:31.539Z,101509.00
2018-08-22T04:47:00.359Z,101503.00
2018-08-22T04:49:29.224Z,101511.00
2018-08-22T04:51:58.112Z,101503.00
2018-08-22T04:54:26.963Z,101512.00
2018-08-22T04:56:55.782Z,101509.00
2018-08-22T04:59:24.675Z,101510.00
2018-08-22T05:01:53.492Z,101506.00
2018-08-22T05:04:22.608Z,101505.00
2018-08-22T05:06:51.478Z,101507.00
2018-08-22T05:09:20.305Z,101510.00
2018-08-22T05:11:49.134Z,101506.00
2018-08-22T05:14:18.016Z,101508.00
2018-08-22T05:16:47.031Z,101507.00
2018-08-22T05:19:15.887Z,101507.00
2018-08-22T05:21:44.716Z,101515.00
2018-08-22T05:24:13.647Z,101504.00
2018-08-22T05:26:42.487Z,101509.00
2018-08-22T05:29:11.461Z,101511.00
2018-08-22T05:31:40.380Z,101506.00
2018-08-22T05:34:09.284Z,101508.00
2018-08-22T05:36:38.219Z,101502.00
2018-08-22T05:39:10.492Z,101506.00
2018-08-22T05:41:39.332Z,101506.00
2018-08-22T05:44:08.212Z,101501.00
2018-08-22T05:46:37.038Z,101498.00
2018-08-22T05:49:06.032Z,101495.00
2018-08-22T05:51:34.869Z,101502.00
2018-08-22T05:54:03.740Z,101503.00
2018-08-22T05:56:32.629Z,101499.00
2018-08-22T05:59:01.497Z,101501.00
2018-08-22T06:01:30.361Z,101491.00
2018-08-22T06:03:59.245Z,101502.00
2018-08-22T06:06:28.103Z,101499.00
2018-08-22T06:08:56.996Z,101494.00
2018-08-22T06:11:25.867Z,101498.00
2018-08-22T06:13:54.712Z,101492.00
2018-08-22T06:16:23.601Z,101497.00
2018-08-22T06:18:52.430Z,101493.00
2018-08-22T06:21:21.307Z,101509.00
2018-08-22T06:23:50.151Z,101498.00
2018-08-22T06:26:18.974Z,101496.00
2018-08-22T06:28:48.033Z,101506.00
2018-08-22T06:31:16.859Z,101507.00
2018-08-22T06:33:45.696Z,101498.00
2018-08-22T06:36:14.527Z,101507.00
2018-08-22T06:38:43.343Z,101500.00
2018-08-22T06:41:12.177Z,101501.00
2018-08-22T06:43:40.977Z,101498.00
2018-08-22T06:46:09.812Z,101493.00
2018-08-22T06:48:38.643Z,101489.00
2018-08-22T06:51:07.474Z,101494.00
2018-08-22T06:53:36.320Z,101481.00
2018-08-22T06:56:05.201Z,101490.00
2018-08-22T06:58:34.040Z,101485.00
2018-08-22T07:01:02.884Z,101487.00
2018-08-22T07:03:31.930Z,101491.00
2018-08-22T07:06:00.794Z,101474.00
2018-08-22T07:08:29.644Z,101480.00
2018-08-22T07:10:58.481Z,101479.00
2018-08-22T07:13:27.322Z,101481.00
2018-08-22T07:15:56.200Z,101479.00
2018-08-22T07:18:25.047Z,101480.00
2018-08-22T07:20:53.948Z,101480.00
2018-08-22T07:23:22.731Z,101476.00
2018-08-22T07:25:52.365Z,101474.00
2018-08-22T07:28:21.166Z,101470.00
2018-08-22T07:30:50.065Z,101467.00
2018-08-22T07:33:18.948Z,101471.00
2018-08-22T07:35:47.862Z,101474.00
2018-08-22T07:38:16.651Z,101468.00
2018-08-22T07:40:45.475Z,101461.00
2018-08-22T07:43:14.730Z,101466.00
2018-08-22T07:45:43.595Z,101462.00
2018-08-22T07:48:12.418Z,101464.00
2018-08-22T07:50:41.297Z,101459.00
2018-08-22T07:53:10.172Z,101463.00
2018-08-22T07:55:41.372Z,101464.00
2018-08-22T07:58:10.239Z,101467.00
2018-08-22T08:00:39.106Z,101458.00
2018-08-22T08:03:07.967Z,101468.00
2018-08-22T08:05:36.872Z,101460.00
2018-08-22T08:08:05.787Z,101463.00
2018-08-22T08:10:35.678Z,101462.00
2018-08-22T08:13:13.476Z,101462.00
2018-08-22T08:15:42.862Z,101459.00
2018-08-22T08:18:11.721Z,101449.00
2018-08-22T08:20:40.568Z,101454.00
2018-08-22T08:23:09.407Z,101456.00
2018-08-22T08:25:38.236Z,101453.00
2018-08-22T08:28:07.104Z,101448.00
2018-08-22T08:30:35.992Z,101445.00
2018-08-22T08:33:04.792Z,101448.00
2018-08-22T08:35:33.588Z,101445.00
2018-08-22T08:38:02.387Z,101446.00
2018-08-22T08:40:31.377Z,101434.00
2018-08-22T08:43:00.272Z,101438.00
2018-08-22T08:45:29.078Z,101437.00
2018-08-22T08:47:57.896Z,101434.00
2018-08-22T08:50:26.731Z,101430.00
2018-08-22T08:52:55.601Z,101432.00
2018-08-22T08:55:24.417Z,101424.00
2018-08-22T08:57:53.288Z,101425.00
2018-08-22T09:00:22.186Z,101426.00
2018-08-22T09:02:51.006Z,101423.00
2018-08-22T09:05:19.865Z,101411.00
2018-08-22T09:07:48.688Z,101414.00
2018-08-22T09:10:17.591Z,101409.00
2018-08-22T09:12:46.423Z,101402.00
2018-08-22T09:15:15.245Z,101415.00
2018-08-22T09:17:44.035Z,101401.00
2018-08-22T09:20:12.900Z,101404.00
2018-08-22T09:22:41.739Z,101407.00
2018-08-22T09:25:10.556Z,101402.00
2018-08-22T09:27:39.427Z,101396.00
2018-08-22T09:30:08.427Z,101401.00
2018-08-22T09:32:37.251Z,101394.00
2018-08-22T09:35:06.130Z,101403.00
2018-08-22T09:37:35.001Z,101389.00
2018-08-22T09:40:03.882Z,101393.00
2018-08-22T09:42:32.704Z,101387.00
2018-08-22T09:45:01.556Z,101390.00
2018-08-22T09:47:30.380Z,101385.00
2018-08-22T09:49:59.346Z,101381.00
2018-08-22T09:52:28.236Z,101379.00
2018-08-22T09:55:00.441Z,101374.00
2018-08-22T09:57:29.866Z,101372.00
2018-08-22T09:59:58.827Z,101367.00
2018-08-22T10:02:27.632Z,101369.00
2018-08-22T10:04:56.673Z,101366.00
2018-08-22T10:07:25.542Z,101366.00
2018-08-22T10:09:54.393Z,101356.00
2018-08-22T10:12:23.454Z,101358.00
2018-08-22T10:14:52.276Z,101357.00
2018-08-22T10:17:21.161Z,101356.00
2018-08-22T10:19:50.005Z,101350.00
2018-08-22T10:22:18.803Z,101350.00
2018-08-22T10:24:47.795Z,101351.00
2018-08-22T10:27:16.574Z,101342.00
2018-08-22T10:29:45.412Z,101342.00
2018-08-22T10:32:14.285Z,101340.00
2018-08-22T10:34:43.077Z,101337.00
2018-08-22T10:37:11.898Z,101336.00
2018-08-22T10:39:40.922Z,101328.00
2018-08-22T10:42:09.800Z,101324.00
2018-08-22T10:44:38.630Z,101326.00
2018-08-22T10:47:07.420Z,101329.00
2018-08-22T10:49:36.259Z,101332.00
2018-08-22T10:52:05.084Z,101318.00
2018-08-22T10:54:33.907Z,101328.00
2018-08-22T10:57:02.896Z,101328.00
2018-08-22T10:59:31.719Z,101326.00
2018-08-22T11:02:00.632Z,101319.00
2018-08-22T11:04:29.434Z,101318.00
2018-08-22T11:06:58.365Z,101306.00
2018-08-22T11:09:27.220Z,101315.00
2018-08-22T11:11:56.065Z,101309.00
2018-08-22T11:14:24.946Z,101304.00
2018-08-22T11:16:53.777Z,101300.00
2018-08-22T11:19:22.656Z,101310.00
2018-08-22T11:22:08.740Z,101308.00
2018-08-22T11:24:54.899Z,101306.00
2018-08-22T11:27:41.693Z,101306.00
2018-08-22T11:30:27.988Z,101298.00
2018-08-22T11:33:14.264Z,101298.00
2018-08-22T11:35:41.850Z,101295.00
2018-08-22T11:38:10.704Z,101295.00
2018-08-22T11:40:39.539Z,101304.00
2018-08-22T11:43:08.388Z,101295.00
2018-08-22T11:45:37.203Z,101300.00
2018-08-22T11:48:06.177Z,101298.00
2018-08-22T11:50:35.004Z,101286.00
2018-08-22T11:53:03.848Z,101286.00
2018-08-22T11:55:32.687Z,101285.00
2018-08-22T11:58:01.580Z,101286.00
2018-08-22T12:00:30.518Z,101282.00
2018-08-22T12:02:59.417Z,101277.00
2018-08-22T12:05:28.334Z,101276.00
2018-08-22T12:07:57.188Z,101281.00
2018-08-22T12:10:30.340Z,101280.00
2018-08-22T12:13:00.596Z,101276.00
2018-08-22T12:15:29.504Z,101275.00
2018-08-22T12:17:58.900Z,101281.00
2018-08-22T12:20:28.047Z,101268.00
2018-08-22T12:22:56.991Z,101268.00
2018-08-22T12:25:25.842Z,101274.00
2018-08-22T12:28:01.739Z,101261.00
2018-08-22T12:30:30.644Z,101257.00
2018-08-22T12:32:59.627Z,101262.00
2018-08-22T12:35:28.419Z,101267.00
2018-08-22T12:37:57.335Z,101251.00
2018-08-22T12:40:26.147Z,101255.00
2018-08-22T12:42:55.547Z,101262.00
2018-08-22T12:45:24.421Z,101247.00
2018-08-22T12:47:53.308Z,101253.00
2018-08-22T12:50:22.150Z,101250.00
2018-08-22T12:52:50.959Z,101246.00
2018-08-22T12:55:19.921Z,101238.00
2018-08-22T12:57:48.751Z,101233.00
2018-08-22T13:00:17.433Z,101225.00
2018-08-22T13:02:46.203Z,101221.00
2018-08-22T13:05:15.042Z,101220.00
2018-08-22T13:07:43.896Z,101217.00
2018-08-22T13:10:12.835Z,101210.00
2018-08-22T13:12:41.631Z,101212.00
2018-08-22T13:15:10.875Z,101203.00
2018-08-22T13:17:39.717Z,101213.00
2018-08-22T13:20:08.575Z,101211.00
2018-08-22T13:22:37.484Z,101201.00
2018-08-22T13:25:06.375Z,101198.00
2018-08-22T13:27:35.156Z,101192.00
2018-08-22T13:30:04.105Z,101211.00
2018-08-22T13:32:33.207Z,101198.00
2018-08-22T13:35:01.981Z,101186.00
2018-08-22T13:37:30.929Z,101196.00
2018-08-22T13:39:59.895Z,101189.00
2018-08-22T13:42:28.728Z,101182.00
2018-08-22T13:44:57.596Z,101180.00
2018-08-22T13:47:26.580Z,101178.00
2018-08-22T13:49:55.534Z,101169.00
2018-08-22T13:52:24.484Z,101184.00
2018-08-22T13:54:53.380Z,101185.00
2018-08-22T13:57:22.349Z,101177.00
2018-08-22T13:59:51.182Z,101165.00
2018-08-22T14:02:20.032Z,101163.00
2018-08-22T14:04:48.879Z,101161.00
2018-08-22T14:07:17.838Z,101159.00
2018-08-22T14:09:46.854Z,101160.00
2018-08-22T14:12:15.921Z,101158.00
2018-08-22T14:14:44.772Z,101165.00
2018-08-22T14:17:13.631Z,101160.00
2018-08-22T14:19:42.470Z,101178.00
2018-08-22T14:22:11.351Z,101172.00
2018-08-22T14:24:40.267Z,101165.00
2018-08-22T14:27:09.178Z,101174.00
2018-08-22T14:29:38.096Z,101175.00
2018-08-22T14:32:07.156Z,101163.00
2018-08-22T14:34:36.267Z,101158.00
2018-08-22T14:37:05.458Z,101149.00
2018-08-22T14:39:34.324Z,101141.00
2018-08-22T14:42:03.178Z,101142.00
2018-08-22T14:44:32.057Z,101140.00
2018-08-22T14:47:01.053Z,101143.00
2018-08-22T14:49:29.969Z,101134.00
2018-08-22T14:51:58.812Z,101130.00
2018-08-22T14:54:27.643Z,101131.00
2018-08-22T14:56:56.979Z,101128.00
2018-08-22T14:59:25.767Z,101123.00
2018-08-22T15:01:54.609Z,101124.00
2018-08-22T15:04:23.402Z,101119.00
2018-08-22T15:06:52.216Z,101107.00
2018-08-22T15:09:21.375Z,101112.00
2018-08-22T15:11:50.214Z,101115.00
2018-08-22T15:14:19.062Z,101102.00
2018-08-22T15:16:47.919Z,101109.00
2018-08-22T15:19:16.882Z,101108.00
2018-08-22T15:21:45.736Z,101096.00
2018-08-22T15:24:15.608Z,101114.00
2018-08-22T15:26:44.632Z,101103.00
2018-08-22T15:29:13.500Z,101101.00
2018-08-22T15:31:42.337Z,101089.00
2018-08-22T15:34:11.247Z,101092.00
2018-08-22T15:36:40.072Z,101095.00
2018-08-22T15:39:10.571Z,101084.00
2018-08-22T15:41:39.463Z,101090.00
2018-08-22T15:44:08.348Z,101083.00
2018-08-22T15:46:37.139Z,101073.00
2018-08-22T15:49:06.197Z,101076.00
2018-08-22T15:51:34.995Z,101072.00
2018-08-22T15:54:12.306Z,101074.00
2018-08-22T15:56:42.044Z,101080.00
2018-08-22T15:59:12.464Z,101072.00
2018-08-22T16:01:41.292Z,101075.00
2018-08-22T16:04:10.626Z,101072.00
2018-08-22T16:06:39.448Z,101070.00
2018-08-22T16:09:16.013Z,101067.00
2018-08-22T16:11:45.094Z,101065.00
2018-08-22T16:14:13.920Z,101057.00
2018-08-22T16:16:42.711Z,101060.00
2018-08-22T16:19:11.508Z,101058.00
2018-08-22T16:21:40.344Z,101064.00
2018-08-22T16:24:09.305Z,101054.00
2018-08-22T16:26:38.133Z,101054.00
2018-08-22T16:29:07.870Z,101053.00
2018-08-22T16:31:42.036Z,101053.00
2018-08-22T16:34:11.576Z,101046.00
2018-08-22T16:36:40.595Z,101044.00
2018-08-22T16:39:09.858Z,101043.00
2018-08-22T16:41:39.048Z,101037.00
2018-08-22T16:44:07.903Z,101036.00
2018-08-22T16:46:36.892Z,101040.00
2018-08-22T16:49:05.758Z,101033.00
2018-08-22T16:51:34.398Z,101038.00
2018-08-22T16:54:10.175Z,101027.00
2018-08-22T16:56:39.497Z,101028.00
2018-08-22T16:59:09.417Z,101033.00
2018-08-22T17:01:40.411Z,101032.00
2018-08-22T17:04:09.317Z,101031.00
2018-08-22T17:06:40.127Z,101028.00
2018-08-22T17:09:10.281Z,101027.00
2018-08-22T17:11:39.081Z,101020.00
2018-08-22T17:14:07.931Z,101022.00
2018-08-22T17:16:37.618Z,101019.00
2018-08-22T17:19:06.538Z,101018.00
2018-08-22T17:21:35.355Z,101012.00
2018-08-22T17:24:04.211Z,101007.00
2018-08-22T17:26:33.124Z,101010.00
2018-08-22T17:29:01.936Z,101015.00
2018-08-22T17:31:31.149Z,101017.00
2018-08-22T17:34:02.336Z,101005.00
2018-08-22T17:36:31.342Z,101012.00
2018-08-22T17:39:01.263Z,101001.00
2018-08-22T17:41:30.882Z,101002.00
2018-08-22T17:44:05.769Z,101004.00
2018-08-22T17:46:38.631Z,101009.00
2018-08-22T17:49:08.438Z,101010.00
2018-08-22T17:51:54.456Z,101007.00
2018-08-22T17:54:23.621Z,101004.00
2018-08-22T17:57:10.676Z,101003.00
2018-08-22T17:59:42.686Z,101000.00
2018-08-22T18:02:12.368Z,100998.00
2018-08-22T18:04:54.439Z,101003.00
2018-08-22T18:07:23.231Z,100999.00
2018-08-22T18:09:52.321Z,101000.00
2018-08-22T18:12:25.126Z,100998.00
2018-08-22T18:14:55.956Z,100999.00
2018-08-22T18:17:24.808Z,101006.00
2018-08-22T18:19:53.622Z,100997.00
2018-08-22T18:22:22.427Z,101000.00
2018-08-22T18:24:55.620Z,101006.00
2018-08-22T18:27:24.739Z,101007.00
2018-08-22T18:29:53.569Z,101007.00
2018-08-22T18:32:22.375Z,101000.00
2018-08-22T18:35:03.787Z,101008.00
2018-08-22T18:37:33.068Z,101003.00
2018-08-22T18:40:23.036Z,101005.00
2018-08-22T18:42:57.725Z,101004.00
2018-08-22T18:45:27.043Z,101009.00
2018-08-22T18:47:55.952Z,101006.00
2018-08-22T18:50:24.792Z,101010.00
2018-08-22T18:52:54.928Z,101008.00
2018-08-22T18:55:26.962Z,101011.00
2018-08-22T18:57:56.749Z,101012.00
2018-08-22T19:00:25.761Z,101011.00
2018-08-22T19:02:56.022Z,101008.00
2018-08-22T19:05:29.885Z,101018.00
2018-08-22T19:08:10.400Z,101009.00
2018-08-22T19:10:40.427Z,101009.00
2018-08-22T19:13:14.604Z,101008.00
2018-08-22T19:15:47.788Z,100998.00
2018-08-22T19:18:16.604Z,100999.00
2018-08-22T19:20:45.508Z,100999.00
2018-08-22T19:23:14.401Z,101001.00
2018-08-22T19:25:46.677Z,101002.00
2018-08-22T19:28:15.452Z,101000.00
2018-08-22T19:30:44.258Z,100999.00
2018-08-22T19:33:18.060Z,101000.00
2018-08-22T19:35:47.453Z,101006.00
2018-08-22T19:38:20.304Z,101007.00
2018-08-22T19:40:49.599Z,101012.00
2018-08-22T19:43:18.480Z,101011.00
2018-08-22T19:45:47.306Z,100999.00
2018-08-22T19:48:16.125Z,100997.00
2018-08-22T19:50:44.931Z,100998.00
2018-08-22T19:53:13.787Z,101000.00
2018-08-22T19:55:42.655Z,101004.00
2018-08-22T19:58:11.715Z,100994.00
2018-08-22T20:00:40.541Z,101001.00
2018-08-22T20:03:09.364Z,101003.00
2018-08-22T20:05:51.128Z,101002.00
2018-08-22T20:08:24.075Z,101001.00
2018-08-22T20:10:52.908Z,101000.00
2018-08-22T20:13:21.728Z,101007.00
2018-08-22T20:15:50.568Z,100998.00
2018-08-22T20:18:19.479Z,100993.00
2018-08-22T20:20:48.401Z,100997.00
2018-08-22T20:23:17.279Z,100994.00
2018-08-22T20:25:46.096Z,100996.00
2018-08-22T20:28:14.932Z,100998.00
2018-08-22T20:30:43.793Z,100993.00
2018-08-22T20:33:12.620Z,100989.00
2018-08-22T20:35:43.242Z,100991.00
2018-08-22T20:38:12.999Z,100994.00
2018-08-22T20:40:41.845Z,100992.00
2018-08-22T20:43:19.861Z,100996.00
2018-08-22T20:45:48.675Z,100999.00
2018-08-22T20:48:18.968Z,100996.00
2018-08-22T20:50:47.853Z,100994.00
2018-08-22T20:53:18.844Z,100989.00
2018-08-22T20:55:47.675Z,100991.00
2018-08-22T20:58:21.928Z,100990.00
2018-08-22T21:00:50.747Z,100988.00
2018-08-22T21:03:19.614Z,100991.00
2018-08-22T21:05:48.422Z,100987.00
2018-08-22T21:08:17.253Z,100993.00
2018-08-22T21:10:46.088Z,100985.00
2018-08-22T21:13:29.535Z,100985.00
2018-08-22T21:15:59.019Z,100985.00
2018-08-22T21:18:28.247Z,100985.00
2018-08-22T21:20:57.547Z,100985.00
2018-08-22T21:23:26.400Z,100982.00
2018-08-22T21:25:55.242Z,100977.00
2018-08-22T21:28:34.184Z,100987.00
2018-08-22T21:31:03.031Z,100985.00
2018-08-22T21:33:31.826Z,100983.00
2018-08-22T21:36:00.701Z,100981.00
2018-08-22T21:38:29.581Z,100979.00
2018-08-22T21:40:58.437Z,100985.00
2018-08-22T21:43:27.330Z,100979.00
2018-08-22T21:45:56.125Z,100980.00
2018-08-22T21:48:26.248Z,100978.00
2018-08-22T21:50:55.176Z,100971.00
2018-08-22T21:53:24.017Z,100967.00
2018-08-22T21:55:53.442Z,100974.00
2018-08-22T21:58:22.267Z,100970.00
2018-08-22T22:00:51.137Z,100971.00
2018-08-22T22:03:25.399Z,100966.00
2018-08-22T22:05:57.083Z,100979.00
2018-08-22T22:08:26.016Z,100972.00
2018-08-22T22:11:07.394Z,100971.00
2018-08-22T22:13:36.236Z,100975.00
2018-08-22T22:16:05.853Z,100964.00
2018-08-22T22:18:35.574Z,100970.00
2018-08-22T22:21:11.953Z,100966.00
2018-08-22T22:23:48.078Z,100967.00
2018-08-22T22:26:18.305Z,100956.00
2018-08-22T22:28:47.123Z,100962.00
2018-08-22T22:31:17.132Z,100957.00
2018-08-22T22:33:54.495Z,100953.00
2018-08-22T22:36:23.351Z,100952.00
2018-08-22T22:38:52.142Z,100948.00
2018-08-22T22:41:22.320Z,100951.00
2018-08-22T22:43:51.198Z,100953.00
2018-08-22T22:46:20.044Z,100942.00
2018-08-22T22:48:48.878Z,100948.00
2018-08-22T22:51:17.717Z,100943.00
2018-08-22T22:53:46.559Z,100939.00
2018-08-22T22:56:15.359Z,100937.00
2018-08-22T22:58:44.151Z,100934.00
2018-08-22T23:01:12.954Z,100933.00
2018-08-22T23:03:42.090Z,100931.00
2018-08-22T23:06:10.948Z,100938.00
2018-08-22T23:08:39.793Z,100930.00
2018-08-22T23:11:08.619Z,100936.00
2018-08-22T23:13:37.411Z,100934.00
2018-08-22T23:16:06.528Z,100939.00
2018-08-22T23:18:35.434Z,100920.00
2018-08-22T23:21:04.184Z,100924.00
2018-08-22T23:23:35.002Z,100920.00
2018-08-22T23:26:11.936Z,100916.00
2018-08-22T23:28:41.208Z,100920.00
2018-08-22T23:31:10.095Z,100912.00
2018-08-22T23:33:38.919Z,100910.00
2018-08-22T23:36:07.849Z,100905.00
2018-08-22T23:38:38.712Z,100899.00
2018-08-22T23:41:07.546Z,100890.00
2018-08-22T23:43:42.153Z,100892.00
2018-08-22T23:46:11.783Z,100900.00
2018-08-22T23:48:41.101Z,100904.00
2018-08-22T23:51:12.108Z,100896.00
